sensor_id;sensor_type;location;lat;lon;timestamp;temperature;humidity
24444;DHT22;13346;50.984;5.822;2024-03-23T00:54:34;5.90;99.90
24444;DHT22;13346;50.984;5.822;2024-03-23T00:57:01;5.80;99.90
24444;DHT22;13346;50.984;5.822;2024-03-23T00:59:27;5.80;99.90
24444;DHT22;13346;50.984;5.822;2024-03-23T01:01:57;5.80;99.90
24444;DHT22;13346;50.984;5.822;2024-03-23T01:04:23;5.70;99.90
24444;DHT22;13346;50.984;5.822;2024-03-23T01:06:50;5.70;99.90
24444;DHT22;13346;50.984;5.822;2024-03-23T01:09:16;5.60;99.90
24444;DHT22;13346;50.984;5.822;2024-03-23T01:11:45;5.60;99.90
24444;DHT22;13346;50.984;5.822;2024-03-23T01:14:11;5.50;99.90
24444;DHT22;13346;50.984;5.822;2024-03-23T01:16:38;5.60;99.90
24444;DHT22;13346;50.984;5.822;2024-03-23T01:19:04;5.60;99.90
24444;DHT22;13346;50.984;5.822;2024-03-23T01:21:32;5.60;99.90
24444;DHT22;13346;50.984;5.822;2024-03-23T01:23:58;5.70;99.90
24444;DHT22;13346;50.984;5.822;2024-03-23T01:26:25;5.70;99.90
24444;DHT22;13346;50.984;5.822;2024-03-23T01:28:53;5.60;99.90
24444;DHT22;13346;50.984;5.822;2024-03-23T01:31:20;5.60;99.90
24444;DHT22;13346;50.984;5.822;2024-03-23T01:33:46;5.50;99.90
24444;DHT22;13346;50.984;5.822;2024-03-23T01:36:13;5.60;99.90
24444;DHT22;13346;50.984;5.822;2024-03-23T01:38:39;5.70;99.90
24444;DHT22;13346;50.984;5.822;2024-03-23T01:41:07;5.80;99.90
24444;DHT22;13346;50.984;5.822;2024-03-23T01:43:33;5.60;99.90
24444;DHT22;13346;50.984;5.822;2024-03-23T01:46:02;5.70;99.90
24444;DHT22;13346;50.984;5.822;2024-03-23T01:48:28;5.60;99.90
24444;DHT22;13346;50.984;5.822;2024-03-23T01:50:55;5.50;99.90
24444;DHT22;13346;50.984;5.822;2024-03-23T01:53:22;5.40;99.90
24444;DHT22;13346;50.984;5.822;2024-03-23T01:55:50;5.60;99.90
24444;DHT22;13346;50.984;5.822;2024-03-23T01:58:16;5.50;99.90
24444;DHT22;13346;50.984;5.822;2024-03-23T02:00:44;5.60;99.90
24444;DHT22;13346;50.984;5.822;2024-03-23T02:03:24;5.50;99.90
24444;DHT22;13346;50.984;5.822;2024-03-23T02:05:52;5.40;99.90
24444;DHT22;13346;50.984;5.822;2024-03-23T02:08:21;5.40;99.90
24444;DHT22;13346;50.984;5.822;2024-03-23T02:10:48;5.40;99.90
24444;DHT22;13346;50.984;5.822;2024-03-23T02:13:14;5.50;99.90
24444;DHT22;13346;50.984;5.822;2024-03-23T02:15:42;5.60;99.90
24444;DHT22;13346;50.984;5.822;2024-03-23T02:18:08;5.50;99.90
24444;DHT22;13346;50.984;5.822;2024-03-23T02:20:38;5.40;99.90
24444;DHT22;13346;50.984;5.822;2024-03-23T02:23:05;5.40;99.90
24444;DHT22;13346;50.984;5.822;2024-03-23T02:25:33;5.40;99.90
24444;DHT22;13346;50.984;5.822;2024-03-23T02:27:59;5.40;99.90
24444;DHT22;13346;50.984;5.822;2024-03-23T02:30:27;5.40;99.90
24444;DHT22;13346;50.984;5.822;2024-03-23T02:32:53;5.40;99.90
24444;DHT22;13346;50.984;5.822;2024-03-23T02:35:20;5.40;99.90
24444;DHT22;13346;50.984;5.822;2024-03-23T02:37:46;5.40;99.90
24444;DHT22;13346;50.984;5.822;2024-03-23T02:40:16;5.40;99.90
24444;DHT22;13346;50.984;5.822;2024-03-23T02:42:42;5.40;99.90
24444;DHT22;13346;50.984;5.822;2024-03-23T02:45:09;5.40;99.90
24444;DHT22;13346;50.984;5.822;2024-03-23T02:47:35;5.40;99.90
24444;DHT22;13346;50.984;5.822;2024-03-23T02:50:03;5.40;99.90
24444;DHT22;13346;50.984;5.822;2024-03-23T02:52:30;5.40;99.90
24444;DHT22;13346;50.984;5.822;2024-03-23T02:54:57;5.50;99.90
24444;DHT22;13346;50.984;5.822;2024-03-23T02:57:25;5.50;99.90
24444;DHT22;13346;50.984;5.822;2024-03-23T02:59:52;5.40;99.90
24444;DHT22;13346;50.984;5.822;2024-03-23T03:02:20;5.40;99.90
24444;DHT22;13346;50.984;5.822;2024-03-23T03:04:47;5.40;99.90
24444;DHT22;13346;50.984;5.822;2024-03-23T03:07:13;5.40;99.90
24444;DHT22;13346;50.984;5.822;2024-03-23T03:09:40;5.40;99.90
24444;DHT22;13346;50.984;5.822;2024-03-23T03:12:07;5.50;99.90
24444;DHT22;13346;50.984;5.822;2024-03-23T03:14:36;5.50;99.90
24444;DHT22;13346;50.984;5.822;2024-03-23T03:17:02;5.60;99.90
24444;DHT22;13346;50.984;5.822;2024-03-23T03:19:29;5.70;99.90
24444;DHT22;13346;50.984;5.822;2024-03-23T03:21:56;5.70;99.90
24444;DHT22;13346;50.984;5.822;2024-03-23T03:24:23;5.60;99.90
24444;DHT22;13346;50.984;5.822;2024-03-23T03:26:49;5.60;99.90
24444;DHT22;13346;50.984;5.822;2024-03-23T03:29:16;5.50;99.90
24444;DHT22;13346;50.984;5.822;2024-03-23T03:31:44;5.40;99.90
24444;DHT22;13346;50.984;5.822;2024-03-23T03:34:12;5.40;99.90
24444;DHT22;13346;50.984;5.822;2024-03-23T03:36:38;5.40;99.90
24444;DHT22;13346;50.984;5.822;2024-03-23T03:39:05;5.40;99.90
24444;DHT22;13346;50.984;5.822;2024-03-23T03:41:32;5.40;99.90
24444;DHT22;13346;50.984;5.822;2024-03-23T03:44:00;5.30;99.90
24444;DHT22;13346;50.984;5.822;2024-03-23T03:46:27;5.30;99.90
24444;DHT22;13346;50.984;5.822;2024-03-23T03:48:56;5.30;99.90
24444;DHT22;13346;50.984;5.822;2024-03-23T03:51:22;5.30;99.90
24444;DHT22;13346;50.984;5.822;2024-03-23T03:53:49;5.30;99.90
24444;DHT22;13346;50.984;5.822;2024-03-23T03:56:16;5.40;99.90
24444;DHT22;13346;50.984;5.822;2024-03-23T03:58:43;5.40;99.90
24444;DHT22;13346;50.984;5.822;2024-03-23T04:01:09;5.40;99.90
24444;DHT22;13346;50.984;5.822;2024-03-23T04:03:37;5.30;99.90
24444;DHT22;13346;50.984;5.822;2024-03-23T04:06:06;5.30;99.90
24444;DHT22;13346;50.984;5.822;2024-03-23T04:08:33;5.40;99.90
24444;DHT22;13346;50.984;5.822;2024-03-23T04:11:00;5.30;99.90
24444;DHT22;13346;50.984;5.822;2024-03-23T04:13:27;5.30;99.90
24444;DHT22;13346;50.984;5.822;2024-03-23T04:15:54;5.30;99.90
24444;DHT22;13346;50.984;5.822;2024-03-23T04:18:21;5.30;99.90
24444;DHT22;13346;50.984;5.822;2024-03-23T04:20:49;5.30;99.90
24444;DHT22;13346;50.984;5.822;2024-03-23T04:23:17;5.30;99.90
24444;DHT22;13346;50.984;5.822;2024-03-23T04:25:43;5.30;99.90
24444;DHT22;13346;50.984;5.822;2024-03-23T04:28:11;5.20;99.90
24444;DHT22;13346;50.984;5.822;2024-03-23T04:30:37;5.20;99.90
24444;DHT22;13346;50.984;5.822;2024-03-23T04:33:05;5.20;99.90
24444;DHT22;13346;50.984;5.822;2024-03-23T04:35:31;5.10;99.90
24444;DHT22;13346;50.984;5.822;2024-03-23T04:37:58;5.10;99.90
24444;DHT22;13346;50.984;5.822;2024-03-23T04:40:27;5.10;99.90
24444;DHT22;13346;50.984;5.822;2024-03-23T04:42:54;5.10;99.90
24444;DHT22;13346;50.984;5.822;2024-03-23T04:45:21;5.20;99.90
24444;DHT22;13346;50.984;5.822;2024-03-23T04:47:49;5.20;99.90
24444;DHT22;13346;50.984;5.822;2024-03-23T04:50:16;5.20;99.90
24444;DHT22;13346;50.984;5.822;2024-03-23T04:52:44;5.20;99.90
24444;DHT22;13346;50.984;5.822;2024-03-23T04:55:11;5.10;99.90
24444;DHT22;13346;50.984;5.822;2024-03-23T04:57:41;5.10;99.90
24444;DHT22;13346;50.984;5.822;2024-03-23T05:00:09;5.00;99.90
24444;DHT22;13346;50.984;5.822;2024-03-23T05:02:45;5.00;99.90
24444;DHT22;13346;50.984;5.822;2024-03-23T05:05:13;4.60;99.90
24444;DHT22;13346;50.984;5.822;2024-03-23T05:07:39;4.80;99.90
24444;DHT22;13346;50.984;5.822;2024-03-23T05:10:09;4.70;99.90
24444;DHT22;13346;50.984;5.822;2024-03-23T05:12:36;4.70;99.90
24444;DHT22;13346;50.984;5.822;2024-03-23T05:15:06;4.70;99.90
24444;DHT22;13346;50.984;5.822;2024-03-23T05:17:33;4.80;99.90
24444;DHT22;13346;50.984;5.822;2024-03-23T05:20:02;4.70;99.90
24444;DHT22;13346;50.984;5.822;2024-03-23T05:22:29;4.70;99.90
24444;DHT22;13346;50.984;5.822;2024-03-23T05:24:56;4.60;99.90
24444;DHT22;13346;50.984;5.822;2024-03-23T05:27:22;4.60;99.90
24444;DHT22;13346;50.984;5.822;2024-03-23T05:29:49;4.70;99.90
24444;DHT22;13346;50.984;5.822;2024-03-23T05:32:17;4.60;99.90
24444;DHT22;13346;50.984;5.822;2024-03-23T05:34:44;4.60;99.90
24444;DHT22;13346;50.984;5.822;2024-03-23T05:37:10;4.70;99.90
24444;DHT22;13346;50.984;5.822;2024-03-23T05:39:38;4.70;99.90
24444;DHT22;13346;50.984;5.822;2024-03-23T05:42:04;4.60;99.90
24444;DHT22;13346;50.984;5.822;2024-03-23T05:44:31;4.70;99.90
24444;DHT22;13346;50.984;5.822;2024-03-23T05:46:57;4.60;99.90
24444;DHT22;13346;50.984;5.822;2024-03-23T05:49:26;4.60;99.90
24444;DHT22;13346;50.984;5.822;2024-03-23T05:51:52;4.70;99.90
24444;DHT22;13346;50.984;5.822;2024-03-23T05:54:21;4.70;99.90
24444;DHT22;13346;50.984;5.822;2024-03-23T05:56:48;4.80;99.90
24444;DHT22;13346;50.984;5.822;2024-03-23T05:59:14;4.90;99.90
24444;DHT22;13346;50.984;5.822;2024-03-23T06:01:41;5.00;99.90
24444;DHT22;13346;50.984;5.822;2024-03-23T06:04:08;5.00;99.90
24444;DHT22;13346;50.984;5.822;2024-03-23T06:06:36;5.10;99.90
24444;DHT22;13346;50.984;5.822;2024-03-23T06:09:02;5.20;99.90
24444;DHT22;13346;50.984;5.822;2024-03-23T06:11:30;5.40;99.90
24444;DHT22;13346;50.984;5.822;2024-03-23T06:13:56;5.50;99.90
24444;DHT22;13346;50.984;5.822;2024-03-23T06:16:26;5.60;99.90
24444;DHT22;13346;50.984;5.822;2024-03-23T06:18:53;5.80;99.90
24444;DHT22;13346;50.984;5.822;2024-03-23T06:21:21;5.90;99.90
24444;DHT22;13346;50.984;5.822;2024-03-23T06:23:52;6.20;99.90
24444;DHT22;13346;50.984;5.822;2024-03-23T06:26:20;6.30;99.90
24444;DHT22;13346;50.984;5.822;2024-03-23T06:28:46;6.60;99.90
24444;DHT22;13346;50.984;5.822;2024-03-23T06:31:13;6.60;99.90
24444;DHT22;13346;50.984;5.822;2024-03-23T06:33:39;6.20;99.90
24444;DHT22;13346;50.984;5.822;2024-03-23T06:36:11;5.80;99.90
24444;DHT22;13346;50.984;5.822;2024-03-23T06:38:37;5.40;99.90
24444;DHT22;13346;50.984;5.822;2024-03-23T06:41:06;5.10;99.90
24444;DHT22;13346;50.984;5.822;2024-03-23T06:43:32;4.90;99.90
24444;DHT22;13346;50.984;5.822;2024-03-23T06:45:59;4.90;99.90
24444;DHT22;13346;50.984;5.822;2024-03-23T06:48:26;4.80;99.90
24444;DHT22;13346;50.984;5.822;2024-03-23T06:50:56;4.70;99.90
24444;DHT22;13346;50.984;5.822;2024-03-23T06:53:22;4.70;99.90
24444;DHT22;13346;50.984;5.822;2024-03-23T06:55:51;4.60;99.90
24444;DHT22;13346;50.984;5.822;2024-03-23T06:58:19;4.50;99.90
24444;DHT22;13346;50.984;5.822;2024-03-23T07:00:46;4.60;99.90
24444;DHT22;13346;50.984;5.822;2024-03-23T07:03:12;4.60;99.90
24444;DHT22;13346;50.984;5.822;2024-03-23T07:05:40;4.90;99.90
24444;DHT22;13346;50.984;5.822;2024-03-23T07:08:06;5.40;99.90
24444;DHT22;13346;50.984;5.822;2024-03-23T07:10:33;5.70;99.90
24444;DHT22;13346;50.984;5.822;2024-03-23T07:12:59;6.00;99.90
24444;DHT22;13346;50.984;5.822;2024-03-23T07:15:28;6.00;99.90
24444;DHT22;13346;50.984;5.822;2024-03-23T07:17:54;6.10;99.90
24444;DHT22;13346;50.984;5.822;2024-03-23T07:20:21;6.20;99.90
24444;DHT22;13346;50.984;5.822;2024-03-23T07:22:47;6.30;99.90
24444;DHT22;13346;50.984;5.822;2024-03-23T07:25:15;6.40;99.90
24444;DHT22;13346;50.984;5.822;2024-03-23T07:27:41;6.40;99.90
24444;DHT22;13346;50.984;5.822;2024-03-23T07:30:08;6.50;99.90
24444;DHT22;13346;50.984;5.822;2024-03-23T07:32:36;6.60;99.90
24444;DHT22;13346;50.984;5.822;2024-03-23T07:35:04;6.80;99.90
24444;DHT22;13346;50.984;5.822;2024-03-23T07:37:30;6.80;99.90
24444;DHT22;13346;50.984;5.822;2024-03-23T07:39:57;6.80;99.90
24444;DHT22;13346;50.984;5.822;2024-03-23T07:42:25;6.90;99.90
24444;DHT22;13346;50.984;5.822;2024-03-23T07:44:52;7.10;99.90
24444;DHT22;13346;50.984;5.822;2024-03-23T07:47:20;7.30;99.90
24444;DHT22;13346;50.984;5.822;2024-03-23T07:49:49;7.40;99.90
24444;DHT22;13346;50.984;5.822;2024-03-23T07:52:15;7.50;99.90
24444;DHT22;13346;50.984;5.822;2024-03-23T07:54:43;7.60;99.90
24444;DHT22;13346;50.984;5.822;2024-03-23T07:57:09;7.80;99.90
24444;DHT22;13346;50.984;5.822;2024-03-23T07:59:37;7.90;99.90
24444;DHT22;13346;50.984;5.822;2024-03-23T08:02:03;8.00;99.90
24444;DHT22;13346;50.984;5.822;2024-03-23T08:04:30;8.00;99.90
24444;DHT22;13346;50.984;5.822;2024-03-23T08:06:58;8.10;99.90
24444;DHT22;13346;50.984;5.822;2024-03-23T08:09:25;8.30;99.90
24444;DHT22;13346;50.984;5.822;2024-03-23T08:11:51;8.20;99.90
24444;DHT22;13346;50.984;5.822;2024-03-23T08:14:18;8.20;99.90
24444;DHT22;13346;50.984;5.822;2024-03-23T08:16:45;8.10;99.90
24444;DHT22;13346;50.984;5.822;2024-03-23T08:19:15;8.10;99.90
24444;DHT22;13346;50.984;5.822;2024-03-23T08:21:41;8.20;99.90
24444;DHT22;13346;50.984;5.822;2024-03-23T08:24:10;8.30;99.90
24444;DHT22;13346;50.984;5.822;2024-03-23T08:26:36;8.30;99.90
24444;DHT22;13346;50.984;5.822;2024-03-23T08:29:05;8.20;99.90
24444;DHT22;13346;50.984;5.822;2024-03-23T08:31:31;8.00;99.90
24444;DHT22;13346;50.984;5.822;2024-03-23T08:33:58;8.10;99.90
24444;DHT22;13346;50.984;5.822;2024-03-23T08:36:24;8.20;99.90
24444;DHT22;13346;50.984;5.822;2024-03-23T08:38:52;8.50;99.90
24444;DHT22;13346;50.984;5.822;2024-03-23T08:41:20;8.50;99.90
24444;DHT22;13346;50.984;5.822;2024-03-23T08:43:48;8.80;99.90
24444;DHT22;13346;50.984;5.822;2024-03-23T08:46:15;8.90;99.90
24444;DHT22;13346;50.984;5.822;2024-03-23T08:48:43;8.90;99.90
24444;DHT22;13346;50.984;5.822;2024-03-23T08:51:12;8.90;99.90
24444;DHT22;13346;50.984;5.822;2024-03-23T08:53:39;8.80;99.90
24444;DHT22;13346;50.984;5.822;2024-03-23T08:56:07;9.20;99.90
24444;DHT22;13346;50.984;5.822;2024-03-23T08:58:36;9.30;99.90
24444;DHT22;13346;50.984;5.822;2024-03-23T09:01:07;9.10;99.90
24444;DHT22;13346;50.984;5.822;2024-03-23T09:03:34;9.40;99.90
24444;DHT22;13346;50.984;5.822;2024-03-23T09:06:01;9.10;99.90
24444;DHT22;13346;50.984;5.822;2024-03-23T09:08:28;9.00;99.90
24444;DHT22;13346;50.984;5.822;2024-03-23T09:10:54;9.40;99.90
24444;DHT22;13346;50.984;5.822;2024-03-23T09:13:21;9.60;99.90
24444;DHT22;13346;50.984;5.822;2024-03-23T09:15:50;10.00;99.90
24444;DHT22;13346;50.984;5.822;2024-03-23T09:18:19;9.90;99.90
24444;DHT22;13346;50.984;5.822;2024-03-23T09:20:45;10.30;99.90
24444;DHT22;13346;50.984;5.822;2024-03-23T09:23:13;10.90;99.90
24444;DHT22;13346;50.984;5.822;2024-03-23T09:25:39;11.10;99.90
24444;DHT22;13346;50.984;5.822;2024-03-23T09:28:07;11.10;99.90
24444;DHT22;13346;50.984;5.822;2024-03-23T09:30:34;11.30;99.90
24444;DHT22;13346;50.984;5.822;2024-03-23T09:33:03;11.70;99.90
24444;DHT22;13346;50.984;5.822;2024-03-23T09:35:29;11.40;99.90
24444;DHT22;13346;50.984;5.822;2024-03-23T09:37:57;11.90;99.90
24444;DHT22;13346;50.984;5.822;2024-03-23T09:40:23;11.10;99.90
24444;DHT22;13346;50.984;5.822;2024-03-23T09:42:50;11.20;99.90
24444;DHT22;13346;50.984;5.822;2024-03-23T09:45:20;11.10;99.90
24444;DHT22;13346;50.984;5.822;2024-03-23T09:47:48;10.90;99.90
24444;DHT22;13346;50.984;5.822;2024-03-23T09:50:15;11.40;99.90
24444;DHT22;13346;50.984;5.822;2024-03-23T09:52:43;11.60;99.90
24444;DHT22;13346;50.984;5.822;2024-03-23T09:55:09;11.00;99.90
24444;DHT22;13346;50.984;5.822;2024-03-23T09:57:36;10.10;99.90
24444;DHT22;13346;50.984;5.822;2024-03-23T10:00:03;9.80;99.90
24444;DHT22;13346;50.984;5.822;2024-03-23T10:02:30;9.40;99.90
24444;DHT22;13346;50.984;5.822;2024-03-23T10:04:57;9.10;99.90
24444;DHT22;13346;50.984;5.822;2024-03-23T10:07:25;9.20;99.90
24444;DHT22;13346;50.984;5.822;2024-03-23T10:09:54;9.30;99.90
24444;DHT22;13346;50.984;5.822;2024-03-23T10:12:22;9.60;99.90
24444;DHT22;13346;50.984;5.822;2024-03-23T10:14:49;9.60;99.90
24444;DHT22;13346;50.984;5.822;2024-03-23T10:17:17;9.50;99.90
24444;DHT22;13346;50.984;5.822;2024-03-23T10:19:44;10.10;99.90
24444;DHT22;13346;50.984;5.822;2024-03-23T10:22:13;10.60;99.90
24444;DHT22;13346;50.984;5.822;2024-03-23T10:24:41;10.90;99.90
24444;DHT22;13346;50.984;5.822;2024-03-23T10:27:08;11.00;99.90
24444;DHT22;13346;50.984;5.822;2024-03-23T10:29:35;11.00;99.90
24444;DHT22;13346;50.984;5.822;2024-03-23T10:32:09;11.40;99.90
24444;DHT22;13346;50.984;5.822;2024-03-23T10:34:36;10.30;99.90
24444;DHT22;13346;50.984;5.822;2024-03-23T10:37:04;9.60;99.90
24444;DHT22;13346;50.984;5.822;2024-03-23T10:39:34;9.10;99.90
24444;DHT22;13346;50.984;5.822;2024-03-23T10:42:07;8.60;99.90
24444;DHT22;13346;50.984;5.822;2024-03-23T10:44:33;8.80;99.90
24444;DHT22;13346;50.984;5.822;2024-03-23T10:47:01;8.90;99.90
24444;DHT22;13346;50.984;5.822;2024-03-23T10:49:29;8.90;99.90
24444;DHT22;13346;50.984;5.822;2024-03-23T10:51:58;9.30;99.90
24444;DHT22;13346;50.984;5.822;2024-03-23T10:54:25;10.00;99.90
24444;DHT22;13346;50.984;5.822;2024-03-23T10:56:56;10.70;99.90
24444;DHT22;13346;50.984;5.822;2024-03-23T10:59:24;11.40;99.90
24444;DHT22;13346;50.984;5.822;2024-03-23T11:01:55;12.20;99.90
24444;DHT22;13346;50.984;5.822;2024-03-23T11:04:32;12.00;99.90
24444;DHT22;13346;50.984;5.822;2024-03-23T11:07:00;12.40;99.90
24444;DHT22;13346;50.984;5.822;2024-03-23T11:09:39;12.20;99.90
24444;DHT22;13346;50.984;5.822;2024-03-23T11:12:25;12.50;99.90
24444;DHT22;13346;50.984;5.822;2024-03-23T11:14:54;13.40;99.90
24444;DHT22;13346;50.984;5.822;2024-03-23T11:17:22;13.10;99.90
24444;DHT22;13346;50.984;5.822;2024-03-23T11:19:56;12.00;99.90
24444;DHT22;13346;50.984;5.822;2024-03-23T11:22:38;8.40;99.90
24444;DHT22;13346;50.984;5.822;2024-03-23T11:25:13;6.50;99.90
24444;DHT22;13346;50.984;5.822;2024-03-23T11:27:40;5.60;99.90
24444;DHT22;13346;50.984;5.822;2024-03-23T11:30:12;5.20;99.90
24444;DHT22;13346;50.984;5.822;2024-03-23T11:32:40;4.80;99.90
24444;DHT22;13346;50.984;5.822;2024-03-23T11:35:06;4.80;99.90
24444;DHT22;13346;50.984;5.822;2024-03-23T11:37:36;4.90;99.90
24444;DHT22;13346;50.984;5.822;2024-03-23T11:40:18;5.00;99.90
24444;DHT22;13346;50.984;5.822;2024-03-23T11:42:45;5.20;99.90
24444;DHT22;13346;50.984;5.822;2024-03-23T11:45:14;5.40;99.90
24444;DHT22;13346;50.984;5.822;2024-03-23T11:47:42;5.70;99.90
24444;DHT22;13346;50.984;5.822;2024-03-23T11:50:08;6.30;99.90
24444;DHT22;13346;50.984;5.822;2024-03-23T11:52:36;7.50;99.90
24444;DHT22;13346;50.984;5.822;2024-03-23T11:55:05;7.90;99.90
24444;DHT22;13346;50.984;5.822;2024-03-23T11:57:34;8.40;99.90
24444;DHT22;13346;50.984;5.822;2024-03-23T12:00:00;8.40;99.90
24444;DHT22;13346;50.984;5.822;2024-03-23T12:02:32;7.60;99.90
24444;DHT22;13346;50.984;5.822;2024-03-23T12:04:58;6.80;99.90
24444;DHT22;13346;50.984;5.822;2024-03-23T12:07:40;7.10;99.90
24444;DHT22;13346;50.984;5.822;2024-03-23T12:10:07;8.00;99.90
24444;DHT22;13346;50.984;5.822;2024-03-23T12:12:34;9.50;99.90
24444;DHT22;13346;50.984;5.822;2024-03-23T12:15:05;10.10;99.90
24444;DHT22;13346;50.984;5.822;2024-03-23T12:17:34;9.70;99.90
24444;DHT22;13346;50.984;5.822;2024-03-23T12:20:01;8.70;99.90
24444;DHT22;13346;50.984;5.822;2024-03-23T12:22:28;8.10;99.90
24444;DHT22;13346;50.984;5.822;2024-03-23T12:24:56;7.90;99.90
24444;DHT22;13346;50.984;5.822;2024-03-23T12:27:23;8.10;99.90
24444;DHT22;13346;50.984;5.822;2024-03-23T12:29:51;7.70;99.90
24444;DHT22;13346;50.984;5.822;2024-03-23T12:32:18;7.20;99.90
24444;DHT22;13346;50.984;5.822;2024-03-23T12:34:47;6.60;99.90
24444;DHT22;13346;50.984;5.822;2024-03-23T12:37:14;6.10;99.90
24444;DHT22;13346;50.984;5.822;2024-03-23T12:39:41;6.10;99.90
24444;DHT22;13346;50.984;5.822;2024-03-23T12:42:08;6.50;99.90
24444;DHT22;13346;50.984;5.822;2024-03-23T12:44:35;6.70;99.90
24444;DHT22;13346;50.984;5.822;2024-03-23T12:47:02;6.30;99.90
24444;DHT22;13346;50.984;5.822;2024-03-23T12:49:28;6.10;99.90
24444;DHT22;13346;50.984;5.822;2024-03-23T12:51:57;6.00;99.90
24444;DHT22;13346;50.984;5.822;2024-03-23T12:54:24;6.20;99.90
24444;DHT22;13346;50.984;5.822;2024-03-23T12:56:51;7.30;99.90
24444;DHT22;13346;50.984;5.822;2024-03-23T12:59:17;8.30;99.90
24444;DHT22;13346;50.984;5.822;2024-03-23T13:01:45;9.00;99.90
24444;DHT22;13346;50.984;5.822;2024-03-23T13:04:11;9.50;99.90
24444;DHT22;13346;50.984;5.822;2024-03-23T13:06:39;10.20;99.90
24444;DHT22;13346;50.984;5.822;2024-03-23T13:09:07;10.30;99.90
24444;DHT22;13346;50.984;5.822;2024-03-23T13:11:34;10.90;99.90
24444;DHT22;13346;50.984;5.822;2024-03-23T13:14:01;11.10;99.90
24444;DHT22;13346;50.984;5.822;2024-03-23T13:16:29;10.80;99.90
24444;DHT22;13346;50.984;5.822;2024-03-23T13:18:55;10.50;99.90
24444;DHT22;13346;50.984;5.822;2024-03-23T13:21:23;10.40;99.90
24444;DHT22;13346;50.984;5.822;2024-03-23T13:23:49;10.10;99.90
24444;DHT22;13346;50.984;5.822;2024-03-23T13:26:18;9.70;99.90
24444;DHT22;13346;50.984;5.822;2024-03-23T13:28:44;9.70;99.90
24444;DHT22;13346;50.984;5.822;2024-03-23T13:31:11;9.70;99.90
24444;DHT22;13346;50.984;5.822;2024-03-23T13:33:38;9.50;99.90
24444;DHT22;13346;50.984;5.822;2024-03-23T13:36:06;9.30;99.90
24444;DHT22;13346;50.984;5.822;2024-03-23T13:38:32;8.40;99.90
24444;DHT22;13346;50.984;5.822;2024-03-23T13:41:00;7.50;99.90
24444;DHT22;13346;50.984;5.822;2024-03-23T13:43:28;7.10;99.90
24444;DHT22;13346;50.984;5.822;2024-03-23T13:45:58;6.90;99.90
24444;DHT22;13346;50.984;5.822;2024-03-23T13:48:26;7.20;99.90
24444;DHT22;13346;50.984;5.822;2024-03-23T13:50:58;8.00;99.90
24444;DHT22;13346;50.984;5.822;2024-03-23T13:53:24;8.80;99.90
24444;DHT22;13346;50.984;5.822;2024-03-23T13:55:52;9.70;99.90
24444;DHT22;13346;50.984;5.822;2024-03-23T13:58:18;9.00;99.90
24444;DHT22;13346;50.984;5.822;2024-03-23T14:00:47;8.50;99.90
24444;DHT22;13346;50.984;5.822;2024-03-23T14:03:14;7.90;99.90
24444;DHT22;13346;50.984;5.822;2024-03-23T14:05:41;7.60;99.90
24444;DHT22;13346;50.984;5.822;2024-03-23T14:08:08;7.40;99.90
24444;DHT22;13346;50.984;5.822;2024-03-23T14:10:36;7.30;99.90
24444;DHT22;13346;50.984;5.822;2024-03-23T14:13:02;7.30;99.90
24444;DHT22;13346;50.984;5.822;2024-03-23T14:15:30;7.50;99.90
24444;DHT22;13346;50.984;5.822;2024-03-23T14:17:58;8.20;99.90
24444;DHT22;13346;50.984;5.822;2024-03-23T14:20:26;7.60;99.90
24444;DHT22;13346;50.984;5.822;2024-03-23T14:22:55;7.90;99.90
24444;DHT22;13346;50.984;5.822;2024-03-23T14:25:22;8.20;99.90
24444;DHT22;13346;50.984;5.822;2024-03-23T14:27:53;9.30;99.90
24444;DHT22;13346;50.984;5.822;2024-03-23T14:30:20;9.70;99.90
24444;DHT22;13346;50.984;5.822;2024-03-23T14:32:46;9.80;99.90
24444;DHT22;13346;50.984;5.822;2024-03-23T14:35:15;10.40;99.90
24444;DHT22;13346;50.984;5.822;2024-03-23T14:37:41;9.80;99.90
24444;DHT22;13346;50.984;5.822;2024-03-23T14:40:09;8.90;99.90
24444;DHT22;13346;50.984;5.822;2024-03-23T14:42:38;8.20;99.90
24444;DHT22;13346;50.984;5.822;2024-03-23T14:45:06;7.60;99.90
24444;DHT22;13346;50.984;5.822;2024-03-23T14:47:33;7.60;99.90
24444;DHT22;13346;50.984;5.822;2024-03-23T14:50:00;7.50;99.90
24444;DHT22;13346;50.984;5.822;2024-03-23T14:52:28;7.40;99.90
24444;DHT22;13346;50.984;5.822;2024-03-23T14:54:55;7.30;99.90
24444;DHT22;13346;50.984;5.822;2024-03-23T14:57:22;7.40;99.90
24444;DHT22;13346;50.984;5.822;2024-03-23T14:59:49;7.30;99.90
24444;DHT22;13346;50.984;5.822;2024-03-23T15:02:15;7.10;99.90
24444;DHT22;13346;50.984;5.822;2024-03-23T15:04:43;7.10;99.90
24444;DHT22;13346;50.984;5.822;2024-03-23T15:07:09;6.90;99.90
24444;DHT22;13346;50.984;5.822;2024-03-23T15:09:38;6.80;99.90
24444;DHT22;13346;50.984;5.822;2024-03-23T15:12:05;6.20;99.90
24444;DHT22;13346;50.984;5.822;2024-03-23T15:14:33;5.50;99.90
24444;DHT22;13346;50.984;5.822;2024-03-23T15:17:00;6.00;99.90
24444;DHT22;13346;50.984;5.822;2024-03-23T15:19:30;6.70;99.90
24444;DHT22;13346;50.984;5.822;2024-03-23T15:21:56;7.40;99.90
24444;DHT22;13346;50.984;5.822;2024-03-23T15:24:23;8.40;99.90
24444;DHT22;13346;50.984;5.822;2024-03-23T15:26:52;9.00;99.90
24444;DHT22;13346;50.984;5.822;2024-03-23T15:29:21;9.40;99.90
24444;DHT22;13346;50.984;5.822;2024-03-23T15:31:48;9.60;99.90
24444;DHT22;13346;50.984;5.822;2024-03-23T15:34:18;9.40;99.90
24444;DHT22;13346;50.984;5.822;2024-03-23T15:36:46;9.00;99.90
24444;DHT22;13346;50.984;5.822;2024-03-23T15:39:13;9.10;99.90
24444;DHT22;13346;50.984;5.822;2024-03-23T15:41:40;8.90;99.90
24444;DHT22;13346;50.984;5.822;2024-03-23T15:44:08;8.30;99.90
24444;DHT22;13346;50.984;5.822;2024-03-23T15:46:34;7.50;99.90
24444;DHT22;13346;50.984;5.822;2024-03-23T15:49:02;7.50;99.90
24444;DHT22;13346;50.984;5.822;2024-03-23T15:51:28;8.30;99.90
24444;DHT22;13346;50.984;5.822;2024-03-23T15:53:59;9.00;99.90
24444;DHT22;13346;50.984;5.822;2024-03-23T15:56:25;9.30;99.90
24444;DHT22;13346;50.984;5.822;2024-03-23T15:58:52;9.90;99.90
24444;DHT22;13346;50.984;5.822;2024-03-23T16:01:20;9.90;99.90
24444;DHT22;13346;50.984;5.822;2024-03-23T16:03:47;9.90;99.90
24444;DHT22;13346;50.984;5.822;2024-03-23T16:06:13;9.70;99.90
24444;DHT22;13346;50.984;5.822;2024-03-23T16:08:40;9.00;99.90
24444;DHT22;13346;50.984;5.822;2024-03-23T16:11:07;8.60;99.90
24444;DHT22;13346;50.984;5.822;2024-03-23T16:13:36;8.70;99.90
24444;DHT22;13346;50.984;5.822;2024-03-23T16:16:03;8.80;99.90
24444;DHT22;13346;50.984;5.822;2024-03-23T16:18:34;8.20;99.90
24444;DHT22;13346;50.984;5.822;2024-03-23T16:21:02;7.40;99.90
24444;DHT22;13346;50.984;5.822;2024-03-23T16:23:31;7.00;99.90
24444;DHT22;13346;50.984;5.822;2024-03-23T16:25:57;6.90;99.90
24444;DHT22;13346;50.984;5.822;2024-03-23T16:28:25;7.20;99.90
24444;DHT22;13346;50.984;5.822;2024-03-23T16:30:56;7.00;99.90
24444;DHT22;13346;50.984;5.822;2024-03-23T16:33:23;7.10;99.90
24444;DHT22;13346;50.984;5.822;2024-03-23T16:35:58;7.10;99.90
24444;DHT22;13346;50.984;5.822;2024-03-23T16:38:26;7.30;99.90
24444;DHT22;13346;50.984;5.822;2024-03-23T16:40:57;7.30;99.90